Time;durP1;ratioP1;P1;durP2;ratioP2;P2;SDS_P1;SDS_P2;PMS_P1;PMS_P2;Temp;Humidity;BMP_temperature;BMP_pressure;BME280_temperature;BME280_humidity;BME280_pressure;Samples;Min_cycle;Max_cycle;Signal;HPM_P1;HPM_P2
2021/07/01 00:01:40;;;;;;;1.55;1.20;;;;;;;15.60;100.00;96132.06;5078582;28;20204;-70
2021/07/01 00:04:08;;;;;;;1.77;1.15;;;;;;;15.44;100.00;96137.84;5078550;28;20195;-70
2021/07/01 00:06:34;;;;;;;1.40;1.00;;;;;;;15.22;100.00;96147.09;5078827;28;20215;-69
2021/07/01 00:09:01;;;;;;;1.73;1.20;;;;;;;15.38;100.00;96136.03;5077837;28;20203;-69
2021/07/01 00:11:27;;;;;;;1.40;1.15;;;;;;;15.25;100.00;96136.06;5078402;28;20313;-69
2021/07/01 00:13:54;;;;;;;3.42;1.00;;;;;;;15.15;100.00;96148.09;5078336;28;20207;-69
2021/07/01 00:16:21;;;;;;;3.30;1.33;;;;;;;14.87;100.00;96151.00;5078547;28;20207;-69
2021/07/01 00:18:49;;;;;;;2.72;1.20;;;;;;;14.80;100.00;96147.53;5077281;28;20219;-69
2021/07/01 00:21:17;;;;;;;2.30;1.23;;;;;;;15.24;100.00;96144.25;5078232;28;20199;-69
2021/07/01 00:23:44;;;;;;;1.83;1.30;;;;;;;15.44;100.00;96140.50;5078718;28;20870;-69
2021/07/01 00:26:11;;;;;;;5.35;1.50;;;;;;;15.24;100.00;96153.03;5077810;28;20204;-69
2021/07/01 00:28:37;;;;;;;1.42;1.10;;;;;;;15.05;100.00;96151.19;5077513;28;20227;-69
2021/07/01 00:31:04;;;;;;;3.45;1.60;;;;;;;15.08;100.00;96157.91;5078045;28;20203;-69
2021/07/01 00:33:30;;;;;;;1.83;1.20;;;;;;;15.07;100.00;96161.56;5078043;28;20212;-69
2021/07/01 00:35:57;;;;;;;2.13;1.58;;;;;;;15.09;100.00;96160.34;5078211;28;20215;-69
2021/07/01 00:38:25;;;;;;;7.27;1.90;;;;;;;15.04;100.00;96159.34;5077354;28;20715;-69
2021/07/01 00:40:51;;;;;;;5.43;1.60;;;;;;;15.15;100.00;96156.88;5077550;28;20208;-69
2021/07/01 00:43:18;;;;;;;2.00;1.20;;;;;;;14.75;100.00;96157.94;5077674;28;20979;-69
2021/07/01 00:45:44;;;;;;;5.72;1.70;;;;;;;15.16;100.00;96161.19;5078805;28;20219;-69
2021/07/01 00:48:11;;;;;;;6.25;1.63;;;;;;;15.02;100.00;96172.00;5076470;28;20234;-69
2021/07/01 00:50:37;;;;;;;8.88;2.03;;;;;;;14.96;100.00;96160.38;5076835;28;21119;-69
2021/07/01 00:53:04;;;;;;;2.58;1.63;;;;;;;14.95;100.00;96156.06;5077202;28;20231;-69
2021/07/01 00:55:33;;;;;;;1.90;1.53;;;;;;;15.14;100.00;96154.44;5077672;28;20204;-69
2021/07/01 00:58:00;;;;;;;3.28;1.60;;;;;;;14.99;100.00;96156.50;5076457;28;20231;-69
2021/07/01 01:00:39;;;;;;;2.97;1.50;;;;;;;15.06;100.00;96157.28;5077637;28;20595;-69
2021/07/01 01:03:06;;;;;;;3.33;1.65;;;;;;;14.97;100.00;96159.34;5077645;28;20286;-70
2021/07/01 01:05:32;;;;;;;2.92;1.42;;;;;;;14.64;100.00;96153.22;5077479;28;20254;-69
2021/07/01 01:07:59;;;;;;;2.23;1.47;;;;;;;14.94;100.00;96151.81;5076666;28;20223;-69
2021/07/01 01:10:26;;;;;;;2.53;1.40;;;;;;;15.11;100.00;96153.00;5077315;28;20245;-69
2021/07/01 01:12:53;;;;;;;3.95;1.48;;;;;;;15.22;100.00;96152.41;5076662;28;20721;-69
2021/07/01 01:15:20;;;;;;;2.70;1.58;;;;;;;15.19;100.00;96162.59;5077786;28;20208;-69
2021/07/01 01:17:47;;;;;;;6.95;1.40;;;;;;;15.16;100.00;96163.81;5076437;28;20224;-69
2021/07/01 01:20:14;;;;;;;2.83;1.45;;;;;;;15.15;100.00;96156.03;5076816;28;20566;-69
2021/07/01 01:22:42;;;;;;;2.83;1.40;;;;;;;15.07;100.00;96148.31;5077252;28;20579;-70
2021/07/01 01:25:10;;;;;;;1.75;1.40;;;;;;;15.02;100.00;96154.25;5077597;28;20227;-70
2021/07/01 01:27:37;;;;;;;4.80;1.40;;;;;;;14.69;100.00;96156.09;5076475;28;20228;-69
2021/07/01 01:30:04;;;;;;;3.25;1.50;;;;;;;14.92;100.00;96155.69;5076935;28;20226;-69
2021/07/01 01:32:31;;;;;;;1.50;1.30;;;;;;;14.91;100.00;96154.84;5077144;28;20228;-69
2021/07/01 01:34:57;;;;;;;3.80;1.40;;;;;;;15.09;100.00;96152.38;5077118;28;20688;-70
2021/07/01 01:37:24;;;;;;;3.80;1.40;;;;;;;14.87;100.00;96152.84;5075666;28;20215;-70
2021/07/01 01:39:51;;;;;;;3.67;1.45;;;;;;;14.98;100.00;96160.16;5077020;28;20223;-70
2021/07/01 01:42:19;;;;;;;3.03;1.20;;;;;;;15.04;100.00;96154.03;5077357;28;20203;-70
2021/07/01 01:44:45;;;;;;;5.00;1.47;;;;;;;15.11;100.00;96150.34;5076951;28;20223;-70
2021/07/01 01:47:16;;;;;;;1.77;1.10;;;;;;;14.93;100.00;96158.13;5076200;28;20226;-69
2021/07/01 01:49:45;;;;;;;3.20;1.40;;;;;;;15.06;100.00;96158.13;5076658;28;20210;-69
2021/07/01 01:52:11;;;;;;;5.27;2.33;;;;;;;14.93;100.00;96155.47;5076216;28;21063;-69
2021/07/01 01:54:38;;;;;;;4.03;1.45;;;;;;;15.05;100.00;96156.47;5077109;28;20211;-69
2021/07/01 01:57:06;;;;;;;1.67;1.17;;;;;;;14.93;100.00;96155.47;5077090;28;20230;-69
2021/07/01 01:59:32;;;;;;;6.20;1.30;;;;;;;15.01;100.00;96149.97;5076066;28;20204;-70
2021/07/01 02:01:59;;;;;;;3.38;1.20;;;;;;;15.02;100.00;96162.22;5076589;28;20203;-69
2021/07/01 02:04:26;;;;;;;2.35;1.50;;;;;;;15.00;100.00;96153.63;5076815;28;20254;-69
2021/07/01 02:06:54;;;;;;;3.22;1.50;;;;;;;15.27;100.00;96147.28;5076739;28;20228;-69
2021/07/01 02:09:21;;;;;;;1.48;1.15;;;;;;;15.05;100.00;96153.81;5075853;28;20206;-69
2021/07/01 02:11:47;;;;;;;1.90;1.35;;;;;;;15.04;100.00;96151.38;5076935;28;20227;-70
2021/07/01 02:14:15;;;;;;;1.73;1.30;;;;;;;15.38;100.00;96146.66;5076590;28;20226;-70
2021/07/01 02:16:42;;;;;;;2.53;1.30;;;;;;;15.25;100.00;96152.00;5076181;28;20203;-69
2021/07/01 02:19:08;;;;;;;2.25;1.20;;;;;;;15.00;100.00;96148.31;5075616;28;20203;-69
2021/07/01 02:21:35;;;;;;;2.90;1.60;;;;;;;15.21;100.00;96152.59;5076662;28;20208;-70
2021/07/01 02:24:01;;;;;;;2.75;1.30;;;;;;;14.96;100.00;96147.09;5076235;28;20204;-69
2021/07/01 02:26:28;;;;;;;1.98;1.20;;;;;;;15.00;100.00;96150.97;5076699;28;20200;-69
2021/07/01 02:28:54;;;;;;;4.47;1.42;;;;;;;15.10;100.00;96143.41;5075723;28;20234;-69
2021/07/01 02:31:22;;;;;;;2.65;1.60;;;;;;;15.39;100.00;96145.63;5080162;28;20575;-69
2021/07/01 02:33:49;;;;;;;2.60;1.67;;;;;;;15.24;100.00;96150.38;5079919;28;20220;-69
2021/07/01 02:36:15;;;;;;;3.03;1.38;;;;;;;14.90;100.00;96149.75;5076967;28;20211;-70
2021/07/01 02:38:42;;;;;;;2.75;1.80;;;;;;;14.89;100.00;96154.25;5079886;28;20228;-69
2021/07/01 02:41:08;;;;;;;3.92;1.90;;;;;;;15.06;100.00;96152.81;5080271;28;20200;-69
2021/07/01 02:43:35;;;;;;;3.50;1.73;;;;;;;15.18;100.00;96148.50;5079930;28;20200;-70
2021/07/01 02:46:01;;;;;;;2.15;1.70;;;;;;;15.36;100.00;96152.19;5080245;28;20207;-70
2021/07/01 02:48:29;;;;;;;4.13;1.77;;;;;;;15.44;100.00;96151.94;5079042;28;20236;-70
2021/07/01 02:50:56;;;;;;;2.60;1.90;;;;;;;15.36;100.00;96148.69;5079965;28;20205;-70
2021/07/01 02:53:22;;;;;;;3.78;1.75;;;;;;;15.39;100.00;96151.75;5080090;28;20223;-70
2021/07/01 02:55:49;;;;;;;4.30;2.20;;;;;;;15.52;100.00;96158.88;5079861;28;20287;-70
2021/07/01 02:58:15;;;;;;;3.38;2.08;;;;;;;15.36;100.00;96161.97;5078469;28;20226;-70
2021/07/01 03:00:42;;;;;;;6.25;2.13;;;;;;;15.32;100.00;96155.44;5080268;28;20210;-70
2021/07/01 03:03:08;;;;;;;4.43;1.50;;;;;;;15.25;100.00;96157.31;5079682;28;20552;-70
2021/07/01 03:05:36;;;;;;;3.65;2.13;;;;;;;15.60;100.00;96153.31;5079567;28;20200;-69
2021/07/01 03:08:03;;;;;;;5.93;1.95;;;;;;;15.45;100.00;96156.25;5078873;28;21068;-70
2021/07/01 03:10:29;;;;;;;4.32;2.22;;;;;;;15.39;100.00;96153.59;5080301;28;20204;-70
2021/07/01 03:12:56;;;;;;;3.33;1.70;;;;;;;15.46;100.00;96165.81;5078949;28;20224;-69
2021/07/01 03:15:22;;;;;;;3.58;2.33;;;;;;;15.54;100.00;96162.13;5079453;28;20203;-69
2021/07/01 03:17:49;;;;;;;2.80;2.00;;;;;;;15.36;100.00;96156.66;5079268;28;20223;-70
2021/07/01 03:20:15;;;;;;;6.45;2.47;;;;;;;15.18;100.00;96161.78;5079550;28;20207;-70
2021/07/01 03:22:43;;;;;;;7.03;2.65;;;;;;;15.76;100.00;96155.50;5079195;28;20200;-70
2021/07/01 03:25:11;;;;;;;3.65;2.35;;;;;;;15.59;100.00;96159.66;5079619;28;20208;-70
2021/07/01 03:27:38;;;;;;;4.43;2.28;;;;;;;15.42;100.00;96153.97;5078612;28;20219;-70
2021/07/01 03:30:06;;;;;;;4.07;2.65;;;;;;;15.13;100.00;96161.56;5079347;28;20196;-70
2021/07/01 03:32:33;;;;;;;5.10;2.60;;;;;;;15.22;100.00;96156.91;5079545;28;20234;-69
2021/07/01 03:34:59;;;;;;;2.83;1.77;;;;;;;15.07;100.00;96161.56;5079262;28;20200;-69
2021/07/01 03:37:26;;;;;;;6.15;3.05;;;;;;;15.47;100.00;96151.53;5078070;28;20726;-69
2021/07/01 03:39:53;;;;;;;5.65;3.10;;;;;;;15.73;100.00;96154.06;5079308;28;20208;-69
2021/07/01 03:42:21;;;;;;;6.10;2.53;;;;;;;15.43;100.00;96155.63;5078944;28;20203;-70
2021/07/01 03:44:48;;;;;;;6.15;3.33;;;;;;;15.64;100.00;96155.34;5079292;28;20208;-70
2021/07/01 03:47:16;;;;;;;9.00;3.38;;;;;;;15.56;100.00;96149.47;5077896;28;20234;-70
2021/07/01 03:49:42;;;;;;;4.30;2.85;;;;;;;15.45;100.00;96152.75;5078847;28;20200;-70
2021/07/01 03:52:09;;;;;;;5.80;3.05;;;;;;;15.59;100.00;96151.69;5078863;28;21024;-70
2021/07/01 03:54:35;;;;;;;7.55;3.33;;;;;;;15.54;100.00;96159.47;5078887;28;20200;-70
2021/07/01 03:57:04;;;;;;;3.97;2.70;;;;;;;15.36;100.00;96161.97;5078223;28;20242;-69
2021/07/01 03:59:30;;;;;;;5.43;3.35;;;;;;;15.51;100.00;96159.91;5078590;28;20208;-70
2021/07/01 04:01:57;;;;;;;4.28;3.10;;;;;;;15.30;100.00;96165.47;5078659;28;20214;-70
2021/07/01 04:04:23;;;;;;;7.63;3.30;;;;;;;14.96;100.00;96163.03;5077857;28;20200;-69
2021/07/01 04:06:50;;;;;;;8.00;3.38;;;;;;;15.40;100.00;96165.84;5078377;28;20204;-70
2021/07/01 04:09:17;;;;;;;8.25;3.55;;;;;;;15.63;100.00;96161.69;5078098;28;20203;-70
2021/07/01 04:11:44;;;;;;;5.05;3.45;;;;;;;15.37;100.00;96167.06;5078396;28;20211;-69
2021/07/01 04:14:12;;;;;;;5.85;4.00;;;;;;;15.41;100.00;96164.81;5078220;28;20710;-70
2021/07/01 04:16:39;;;;;;;5.10;2.67;;;;;;;15.14;100.00;96171.16;5078389;28;20659;-69
2021/07/01 04:19:06;;;;;;;6.65;3.47;;;;;;;15.42;100.00;96175.22;5077737;28;20203;-69
2021/07/01 04:21:32;;;;;;;4.70;3.38;;;;;;;15.58;100.00;96171.31;5078005;28;20206;-69
2021/07/01 04:23:59;;;;;;;5.95;3.60;;;;;;;15.52;100.00;96178.28;5079306;28;20207;-69
2021/07/01 04:26:26;;;;;;;5.70;3.63;;;;;;;15.28;100.00;96178.94;5078197;28;20208;-69
2021/07/01 04:28:53;;;;;;;5.93;3.63;;;;;;;15.52;100.00;96180.13;5077248;28;20216;-69
2021/07/01 04:31:22;;;;;;;5.15;3.10;;;;;;;15.46;100.00;96194.22;5077994;28;20223;-69
2021/07/01 04:33:49;;;;;;;6.60;3.60;;;;;;;15.78;100.00;96185.34;5077872;28;20231;-69
2021/07/01 04:36:15;;;;;;;6.18;3.72;;;;;;;15.47;100.00;96193.22;5078063;28;20207;-69
2021/07/01 04:38:42;;;;;;;5.88;3.63;;;;;;;15.58;100.00;96185.41;5077043;28;20995;-69
2021/07/01 04:41:09;;;;;;;7.53;3.80;;;;;;;15.41;100.00;96183.41;5077880;28;21083;-69
2021/07/01 04:43:35;;;;;;;8.85;3.88;;;;;;;15.36;100.00;96177.91;5078142;28;20222;-69
2021/07/01 04:46:02;;;;;;;6.55;3.53;;;;;;;15.29;100.00;96179.75;5077769;28;20212;-69
2021/07/01 04:48:30;;;;;;;5.75;3.75;;;;;;;15.45;100.00;96184.63;5077092;28;20274;-69
2021/07/01 04:50:56;;;;;;;8.43;4.20;;;;;;;15.54;100.00;96183.38;5077689;28;20208;-69
2021/07/01 04:53:23;;;;;;;7.00;4.57;;;;;;;15.64;100.00;96178.44;5077255;28;20215;-69
2021/07/01 04:55:49;;;;;;;7.63;4.18;;;;;;;15.54;100.00;96180.72;5077702;28;20207;-69
2021/07/01 04:58:15;;;;;;;9.10;4.00;;;;;;;15.76;100.00;96174.94;5076998;28;20220;-69
2021/07/01 05:00:42;;;;;;;6.90;4.13;;;;;;;15.61;100.00;96178.88;5077369;28;20218;-69
2021/07/01 05:03:08;;;;;;;7.28;3.75;;;;;;;15.64;100.00;96184.56;5077430;28;20203;-69
2021/07/01 05:05:36;;;;;;;9.27;4.35;;;;;;;15.84;100.00;96189.84;5078037;28;20200;-69
2021/07/01 05:08:03;;;;;;;6.95;4.07;;;;;;;15.90;100.00;96185.28;5077544;28;20219;-69
2021/07/01 05:10:30;;;;;;;5.47;4.03;;;;;;;15.91;100.00;96176.31;5077403;28;20203;-69
2021/07/01 05:12:58;;;;;;;6.18;3.80;;;;;;;16.07;100.00;96186.44;5077167;28;20231;-69
2021/07/01 05:15:24;;;;;;;6.82;3.67;;;;;;;16.02;100.00;96185.44;5077616;28;20203;-69
2021/07/01 05:17:51;;;;;;;5.47;3.85;;;;;;;16.04;100.00;96196.69;5076417;28;20232;-69
2021/07/01 05:20:17;;;;;;;8.70;4.57;;;;;;;16.25;100.00;96196.38;5077691;28;20863;-69
2021/07/01 05:22:45;;;;;;;8.30;3.50;;;;;;;16.12;100.00;96196.44;5077201;28;20200;-69
2021/07/01 05:25:13;;;;;;;3.85;2.55;;;;;;;15.90;100.00;96200.44;5077369;28;20297;-69
2021/07/01 05:27:39;;;;;;;8.07;4.00;;;;;;;16.03;100.00;96195.88;5076377;28;20246;-69
2021/07/01 05:30:07;;;;;;;8.00;3.65;;;;;;;15.99;100.00;96194.66;5077001;28;20233;-69
2021/07/01 05:32:33;;;;;;;8.93;3.35;;;;;;;15.96;100.00;96200.41;5077244;28;20204;-69
2021/07/01 05:34:59;;;;;;;6.78;3.38;;;;;;;16.02;100.00;96194.22;5077299;28;20571;-69
2021/07/01 05:37:26;;;;;;;6.60;3.80;;;;;;;16.12;100.00;96199.09;5076365;28;20270;-69
2021/07/01 05:39:54;;;;;;;5.60;2.78;;;;;;;15.99;100.00;96193.84;5077310;28;20218;-69
2021/07/01 05:42:21;;;;;;;5.25;3.30;;;;;;;16.00;100.00;96198.97;5076854;28;20714;-69
2021/07/01 05:44:47;;;;;;;7.25;4.05;;;;;;;16.16;100.00;96200.31;5076833;28;20203;-69
2021/07/01 05:47:14;;;;;;;7.55;4.72;;;;;;;16.02;100.00;96201.41;5076155;28;20578;-69
2021/07/01 05:49:40;;;;;;;7.47;4.40;;;;;;;16.03;100.00;96200.38;5076797;28;20219;-69
2021/07/01 05:52:08;;;;;;;6.72;4.47;;;;;;;15.92;100.00;96207.16;5076646;28;20207;-69
2021/07/01 05:54:37;;;;;;;6.28;4.25;;;;;;;15.82;100.00;96200.66;5076506;28;20311;-69
2021/07/01 05:57:05;;;;;;;8.07;5.20;;;;;;;15.82;100.00;96208.63;5076225;28;20865;-69
2021/07/01 05:59:32;;;;;;;6.30;4.07;;;;;;;15.79;100.00;96208.25;5075820;28;20211;-69
2021/07/01 06:01:59;;;;;;;9.05;5.32;;;;;;;15.99;100.00;96205.28;5076872;28;20200;-69
2021/07/01 06:04:25;;;;;;;7.60;4.63;;;;;;;15.80;100.00;96213.34;5079623;28;20233;-69
2021/07/01 06:06:53;;;;;;;10.30;5.20;;;;;;;15.99;100.00;96207.16;5080026;28;21886;-69
2021/07/01 06:09:23;;;;;;;9.48;5.65;;;;;;;15.84;100.00;96208.44;5080041;28;20686;-69
2021/07/01 06:11:54;;;;;;;7.00;4.80;;;;;;;15.79;100.00;96211.69;5080932;28;20204;-69
2021/07/01 06:14:23;;;;;;;10.63;5.90;;;;;;;15.80;100.00;96215.19;5080155;28;20214;-70
2021/07/01 06:16:52;;;;;;;9.18;5.10;;;;;;;15.81;100.00;96225.59;5080491;28;20200;-69
2021/07/01 06:19:19;;;;;;;9.93;5.40;;;;;;;15.57;100.00;96218.31;5079576;28;20204;-70
2021/07/01 06:21:48;;;;;;;7.47;4.97;;;;;;;15.97;100.00;96220.66;5079721;28;20292;-70
2021/07/01 06:24:15;;;;;;;11.20;5.47;;;;;;;15.88;100.00;96221.91;5080386;28;20196;-70
2021/07/01 06:26:42;;;;;;;10.38;5.50;;;;;;;16.10;100.00;96228.56;5081176;28;20651;-70
2021/07/01 06:29:10;;;;;;;7.35;5.43;;;;;;;16.23;100.00;96227.69;5079879;28;20200;-70
2021/07/01 06:31:39;;;;;;;8.52;5.35;;;;;;;16.18;100.00;96228.31;5080531;28;21071;-70
2021/07/01 06:34:05;;;;;;;7.65;5.00;;;;;;;16.28;100.00;96227.88;5078473;28;20309;-69
2021/07/01 06:36:35;;;;;;;8.50;6.15;;;;;;;16.23;100.00;96230.34;5079394;28;20210;-70
2021/07/01 06:39:04;;;;;;;7.20;5.07;;;;;;;16.33;100.00;96233.38;5078617;28;20207;-70
2021/07/01 06:41:33;;;;;;;8.20;4.88;;;;;;;16.18;100.00;96241.63;5079506;28;20215;-69
2021/07/01 06:44:02;;;;;;;5.40;2.97;;;;;;;16.11;100.00;96238.16;5079740;28;20196;-70
2021/07/01 06:46:32;;;;;;;9.93;4.70;;;;;;;16.40;100.00;96242.16;5079915;28;20212;-70
2021/07/01 06:49:01;;;;;;;7.45;4.72;;;;;;;16.33;100.00;96242.19;5079657;28;20207;-69
2021/07/01 06:51:36;;;;;;;7.88;4.70;;;;;;;16.15;100.00;96243.88;5080234;28;20214;-69
2021/07/01 06:54:03;;;;;;;8.02;5.07;;;;;;;16.25;100.00;96242.38;5079503;28;20782;-69
2021/07/01 06:56:38;;;;;;;8.32;4.80;;;;;;;16.49;100.00;96249.69;5080134;28;20206;-70
2021/07/01 06:59:05;;;;;;;7.40;4.57;;;;;;;16.26;100.00;96246.72;5079795;28;20207;-70
2021/07/01 07:01:32;;;;;;;6.85;4.80;;;;;;;16.37;100.00;96248.72;5079534;28;20200;-70
2021/07/01 07:04:01;;;;;;;10.50;5.05;;;;;;;16.58;100.00;96251.06;5079088;28;20996;-70
2021/07/01 07:06:28;;;;;;;9.02;5.32;;;;;;;16.53;100.00;96250.88;5078949;28;20210;-70
2021/07/01 07:08:55;;;;;;;5.72;3.65;;;;;;;16.40;100.00;96250.94;5078718;28;20228;-70
2021/07/01 07:11:22;;;;;;;6.97;4.03;;;;;;;16.44;100.00;96262.78;5079724;28;20199;-70
2021/07/01 07:13:48;;;;;;;8.25;4.43;;;;;;;16.56;100.00;96258.47;5080206;28;20231;-70
2021/07/01 07:16:15;;;;;;;5.93;4.18;;;;;;;16.91;100.00;96260.47;5079207;28;20208;-70
2021/07/01 07:18:42;;;;;;;6.78;4.60;;;;;;;16.63;100.00;96256.56;5078364;28;20703;-70
2021/07/01 07:21:17;;;;;;;6.82;4.28;;;;;;;16.73;100.00;96255.06;5080371;28;20200;-70
2021/07/01 07:23:43;;;;;;;9.05;4.93;;;;;;;17.09;100.00;96253.38;5078939;28;20388;-69
2021/07/01 07:26:15;;;;;;;6.72;4.60;;;;;;;17.14;100.00;96258.88;5078833;28;20754;-70
2021/07/01 07:28:43;;;;;;;7.25;3.90;;;;;;;17.01;100.00;96249.38;5079115;28;20224;-70
2021/07/01 07:31:17;;;;;;;6.80;4.60;;;;;;;17.02;100.00;96257.13;5079758;28;20212;-69
2021/07/01 07:33:44;;;;;;;6.85;4.78;;;;;;;17.04;100.00;96268.34;5078998;28;20335;-70
2021/07/01 07:36:13;;;;;;;5.63;3.97;;;;;;;17.01;100.00;96265.34;5079144;28;20196;-69
2021/07/01 07:38:40;;;;;;;6.93;4.50;;;;;;;17.36;100.00;96265.50;5078353;28;20224;-70
2021/07/01 07:41:07;;;;;;;7.50;4.65;;;;;;;17.48;100.00;96263.75;5079811;28;20196;-69
2021/07/01 07:43:38;;;;;;;8.10;5.15;;;;;;;17.56;100.00;96263.44;5079311;28;20208;-70
2021/07/01 07:46:04;;;;;;;6.72;3.92;;;;;;;17.63;98.20;96264.22;5079661;28;20199;-70
2021/07/01 07:48:31;;;;;;;5.72;4.38;;;;;;;17.46;100.00;96260.47;5078087;28;20479;-70
2021/07/01 07:50:57;;;;;;;7.80;4.80;;;;;;;17.57;100.00;96259.75;5078453;28;20290;-69
2021/07/01 07:53:30;;;;;;;7.43;4.70;;;;;;;17.49;99.17;96257.38;5079360;28;20208;-69
2021/07/01 07:56:02;;;;;;;7.32;4.32;;;;;;;17.51;100.00;96255.28;5079039;28;20203;-70
2021/07/01 07:58:31;;;;;;;7.43;4.95;;;;;;;17.35;100.00;96258.53;5078496;28;20231;-70
2021/07/01 08:01:00;;;;;;;7.10;4.68;;;;;;;17.74;99.30;96259.00;5079426;28;20196;-70
2021/07/01 08:03:28;;;;;;;7.03;4.40;;;;;;;17.37;98.89;96261.78;5079428;28;20674;-70
2021/07/01 08:05:56;;;;;;;6.93;4.30;;;;;;;17.47;99.45;96248.78;5078818;28;20219;-70
2021/07/01 08:08:25;;;;;;;6.30;4.10;;;;;;;17.74;96.94;96260.81;5078277;28;20334;-70
2021/07/01 08:10:53;;;;;;;5.90;4.13;;;;;;;17.41;98.46;96264.81;5078901;28;20208;-70
2021/07/01 08:13:21;;;;;;;5.57;3.97;;;;;;;17.24;99.33;96256.56;5079197;28;20200;-70
2021/07/01 08:15:48;;;;;;;7.47;4.85;;;;;;;17.76;100.00;96256.09;5078854;28;20489;-70
2021/07/01 08:18:31;;;;;;;5.18;3.53;;;;;;;17.43;96.74;96250.25;5077929;28;20223;-70
2021/07/01 08:20:59;;;;;;;5.97;4.28;;;;;;;17.65;97.80;96254.16;5079064;28;20203;-70
2021/07/01 08:23:25;;;;;;;7.03;4.85;;;;;;;17.57;98.29;96250.97;5078725;28;20248;-70
2021/07/01 08:25:54;;;;;;;5.97;3.92;;;;;;;17.62;97.14;96257.25;5078417;28;20208;-69
2021/07/01 08:28:22;;;;;;;7.75;4.47;;;;;;;17.73;96.23;96259.19;5076408;28;20222;-69
2021/07/01 08:30:49;;;;;;;5.85;4.07;;;;;;;17.75;96.80;96255.25;5078290;28;20207;-70
2021/07/01 08:33:20;;;;;;;6.72;4.43;;;;;;;17.87;97.88;96250.00;5079110;28;20203;-70
2021/07/01 08:35:50;;;;;;;7.80;4.40;;;;;;;18.08;95.75;96244.25;5078375;28;20224;-70
2021/07/01 08:38:17;;;;;;;6.00;3.85;;;;;;;17.84;95.74;96256.59;5077720;28;20219;-70
2021/07/01 08:40:45;;;;;;;6.40;4.18;;;;;;;18.07;95.87;96250.63;5078157;28;21247;-70
2021/07/01 08:43:17;;;;;;;7.07;4.47;;;;;;;18.04;93.01;96256.41;5079585;28;20196;-70
2021/07/01 08:45:51;;;;;;;6.80;4.15;;;;;;;18.09;93.95;96253.91;5078441;28;20696;-70
2021/07/01 08:48:22;;;;;;;6.43;4.10;;;;;;;18.16;93.71;96251.97;5077239;28;20234;-70
2021/07/01 08:50:55;;;;;;;6.07;4.25;;;;;;;18.28;93.29;96255.53;5078170;28;20204;-70
2021/07/01 08:53:42;;;;;;;4.90;3.60;;;;;;;17.95;93.64;96252.41;5077970;28;20204;-70
2021/07/01 08:56:11;;;;;;;5.40;3.78;;;;;;;17.95;94.34;96249.75;5077863;28;20203;-70
2021/07/01 08:58:44;;;;;;;7.35;4.50;;;;;;;18.25;94.82;96256.00;5077024;28;20292;-70
2021/07/01 09:01:12;;;;;;;6.68;3.58;;;;;;;18.05;92.00;96256.19;5078041;28;20199;-70
2021/07/01 09:03:44;;;;;;;5.25;3.72;;;;;;;18.27;90.94;96259.25;5078090;28;20204;-70
2021/07/01 09:06:22;;;;;;;4.32;2.83;;;;;;;18.32;90.99;96252.22;5077951;28;20219;-70
2021/07/01 09:08:50;;;;;;;5.10;3.35;;;;;;;17.80;93.01;96267.94;5077172;28;20590;-70
2021/07/01 09:11:19;;;;;;;6.30;3.40;;;;;;;18.01;93.68;96259.50;5077335;28;20234;-70
2021/07/01 09:13:50;;;;;;;4.82;3.58;;;;;;;18.03;93.59;96255.59;5078091;28;20211;-70
2021/07/01 09:16:18;;;;;;;4.80;3.22;;;;;;;17.85;92.00;96262.78;5078225;28;20206;-70
2021/07/01 09:18:45;;;;;;;6.65;3.25;;;;;;;17.80;93.99;96267.94;5077181;28;20257;-70
2021/07/01 09:21:13;;;;;;;6.47;3.10;;;;;;;17.63;95.44;96266.88;5077438;28;20389;-70
2021/07/01 09:23:45;;;;;;;3.20;2.22;;;;;;;17.51;93.99;96263.28;5077935;28;20207;-70
2021/07/01 09:26:19;;;;;;;6.22;3.25;;;;;;;17.73;94.87;96268.00;5077717;28;20204;-70
2021/07/01 09:28:48;;;;;;;4.38;2.90;;;;;;;17.83;91.46;96270.16;5077984;28;20239;-70
2021/07/01 09:31:17;;;;;;;5.80;2.55;;;;;;;17.71;91.78;96273.78;5078385;28;20226;-70
2021/07/01 09:33:45;;;;;;;6.32;3.35;;;;;;;17.72;92.49;96276.22;5078001;28;20208;-70
2021/07/01 09:36:13;;;;;;;4.60;3.08;;;;;;;17.57;93.36;96278.41;5077459;28;20558;-70
2021/07/01 09:38:42;;;;;;;8.65;3.10;;;;;;;17.56;93.46;96282.09;5076564;28;20223;-70
2021/07/01 09:41:09;;;;;;;3.13;2.50;;;;;;;17.56;93.48;96276.78;5077078;28;20667;-70
2021/07/01 09:43:39;;;;;;;5.43;3.63;;;;;;;17.94;92.17;96285.44;5077681;28;20226;-70
2021/07/01 09:46:11;;;;;;;4.68;2.97;;;;;;;18.11;91.68;96278.47;5078471;28;20211;-70
2021/07/01 09:48:44;;;;;;;10.15;3.45;;;;;;;18.07;91.92;96280.75;5076494;28;20326;-70
2021/07/01 09:51:12;;;;;;;6.10;3.22;;;;;;;18.03;89.74;96284.13;5077686;28;20760;-70
2021/07/01 09:53:39;;;;;;;7.05;3.20;;;;;;;18.30;90.88;96280.16;5078184;28;20215;-70
2021/07/01 09:56:07;;;;;;;6.20;3.10;;;;;;;18.30;89.55;96274.81;5077896;28;20224;-70
2021/07/01 09:58:39;;;;;;;7.32;3.30;;;;;;;18.25;88.75;96274.66;5077060;28;20577;-70
2021/07/01 10:01:07;;;;;;;7.47;3.10;;;;;;;18.55;89.10;96284.34;5077408;28;21043;-70
2021/07/01 10:03:52;;;;;;;5.65;3.00;;;;;;;18.59;87.60;96264.97;5078362;28;20200;-70
2021/07/01 10:06:19;;;;;;;6.20;3.22;;;;;;;18.94;85.93;96264.06;5077411;28;20199;-70
2021/07/01 10:08:47;;;;;;;4.90;3.10;;;;;;;19.08;85.78;96272.72;5076740;28;20591;-70
2021/07/01 10:11:15;;;;;;;4.15;2.40;;;;;;;18.63;85.46;96260.81;5077403;28;20227;-69
2021/07/01 10:13:52;;;;;;;4.50;2.80;;;;;;;18.70;84.41;96264.22;5077377;28;20199;-70
2021/07/01 10:16:25;;;;;;;3.92;2.50;;;;;;;18.93;84.08;96267.78;5077696;28;20226;-70
2021/07/01 10:18:51;;;;;;;3.17;1.77;;;;;;;18.51;82.12;96270.63;5077093;28;20250;-70
2021/07/01 10:21:19;;;;;;;3.60;2.45;;;;;;;18.65;83.35;96264.09;5076948;28;20206;-70
2021/07/01 10:23:48;;;;;;;3.15;2.47;;;;;;;18.82;81.42;96261.59;5077875;28;20207;-70
2021/07/01 10:26:19;;;;;;;3.42;2.50;;;;;;;18.75;80.54;96261.69;5077842;28;20196;-70
2021/07/01 10:28:58;;;;;;;3.22;2.58;;;;;;;18.97;80.73;96260.94;5076178;28;20626;-70
2021/07/01 10:31:26;;;;;;;3.85;2.60;;;;;;;19.03;81.60;96256.56;5077427;28;20199;-70
2021/07/01 10:33:59;;;;;;;2.63;2.03;;;;;;;19.07;79.84;96255.91;5077793;28;20208;-70
2021/07/01 10:36:27;;;;;;;4.07;2.47;;;;;;;18.88;80.51;96253.50;5077587;28;20228;-70
2021/07/01 10:38:55;;;;;;;3.90;2.35;;;;;;;19.26;80.24;96254.78;5076258;28;20231;-70
2021/07/01 10:41:28;;;;;;;5.55;2.72;;;;;;;19.43;78.92;96261.06;5074188;28;20204;-70
2021/07/01 10:43:54;;;;;;;3.33;2.45;;;;;;;19.63;78.59;96259.69;5076875;28;20204;-70
2021/07/01 10:46:21;;;;;;;4.10;2.58;;;;;;;19.46;78.34;96273.16;5077574;28;20196;-70
2021/07/01 10:48:57;;;;;;;3.47;2.88;;;;;;;19.62;76.82;96266.09;5075996;28;20223;-70
2021/07/01 10:51:27;;;;;;;3.90;3.20;;;;;;;19.54;78.64;96264.78;5079776;28;20195;-70
2021/07/01 10:53:54;;;;;;;3.92;3.00;;;;;;;19.36;77.92;96255.03;5078779;28;20204;-69
2021/07/01 10:56:39;;;;;;;5.65;4.10;;;;;;;19.37;79.26;96256.63;5081104;28;20227;-70
2021/07/01 10:59:06;;;;;;;6.80;3.60;;;;;;;19.07;80.82;96260.44;5079457;28;20211;-70
2021/07/01 11:01:37;;;;;;;6.25;4.20;;;;;;;19.08;79.28;96254.03;5079557;28;20208;-70
2021/07/01 11:04:07;;;;;;;5.70;3.72;;;;;;;18.88;83.10;96258.84;5080343;28;20206;-70
2021/07/01 11:06:34;;;;;;;5.05;3.47;;;;;;;18.95;85.05;96254.19;5081527;28;20211;-70
2021/07/01 11:09:01;;;;;;;6.22;3.85;;;;;;;19.01;85.74;96264.78;5080614;28;20694;-70
2021/07/01 11:11:31;;;;;;;6.30;4.07;;;;;;;18.71;87.61;96262.34;5080149;28;20207;-70
2021/07/01 11:13:59;;;;;;;7.15;3.92;;;;;;;18.99;89.63;96261.53;5080925;28;20672;-70
2021/07/01 11:16:33;;;;;;;6.95;4.60;;;;;;;18.96;92.23;96258.50;5079369;28;20235;-70
2021/07/01 11:19:00;;;;;;;10.38;4.55;;;;;;;18.83;91.85;96260.56;5078384;28;20256;-70
2021/07/01 11:21:28;;;;;;;7.05;4.70;;;;;;;18.80;93.71;96261.84;5079127;28;20199;-70
2021/07/01 11:24:11;;;;;;;7.10;4.82;;;;;;;19.62;94.48;96259.94;5079217;28;20667;-70
2021/07/01 11:26:37;;;;;;;9.10;5.00;;;;;;;19.78;91.90;96262.72;5079761;28;20674;-70
2021/07/01 11:29:08;;;;;;;7.28;5.15;;;;;;;19.67;94.54;96257.38;5078932;28;20203;-70
2021/07/01 11:31:37;;;;;;;7.38;4.35;;;;;;;19.70;90.62;96257.75;5079441;28;20200;-70